sensor_id;sensor_type;location;lat;lon;timestamp;P1;durP1;ratioP1;P2;durP2;ratioP2
22543;SDS011;11438;52.044;8.716;2024-02-28T00:02:08;17.63;;;11.17;;
22543;SDS011;11438;52.044;8.716;2024-02-28T00:04:33;18.47;;;11.50;;
22543;SDS011;11438;52.044;8.716;2024-02-28T00:06:59;18.47;;;10.90;;
22543;SDS011;11438;52.044;8.716;2024-02-28T00:09:24;19.83;;;11.33;;
22543;SDS011;11438;52.044;8.716;2024-02-28T00:11:50;18.07;;;11.37;;
22543;SDS011;11438;52.044;8.716;2024-02-28T00:14:15;18.50;;;11.10;;
22543;SDS011;11438;52.044;8.716;2024-02-28T00:16:41;16.73;;;10.63;;
22543;SDS011;11438;52.044;8.716;2024-02-28T00:19:08;17.43;;;11.37;;
22543;SDS011;11438;52.044;8.716;2024-02-28T00:21:34;18.03;;;11.23;;
22543;SDS011;11438;52.044;8.716;2024-02-28T00:23:59;20.23;;;11.87;;
22543;SDS011;11438;52.044;8.716;2024-02-28T00:26:25;17.77;;;11.83;;
22543;SDS011;11438;52.044;8.716;2024-02-28T00:28:50;18.70;;;11.73;;
22543;SDS011;11438;52.044;8.716;2024-02-28T00:31:16;19.03;;;11.10;;
22543;SDS011;11438;52.044;8.716;2024-02-28T00:33:41;17.70;;;11.27;;
22543;SDS011;11438;52.044;8.716;2024-02-28T00:36:07;18.80;;;11.40;;
22543;SDS011;11438;52.044;8.716;2024-02-28T00:38:32;17.20;;;12.03;;
22543;SDS011;11438;52.044;8.716;2024-02-28T00:40:58;19.30;;;11.13;;
22543;SDS011;11438;52.044;8.716;2024-02-28T00:43:23;17.20;;;11.07;;
22543;SDS011;11438;52.044;8.716;2024-02-28T00:45:49;17.00;;;11.03;;
22543;SDS011;11438;52.044;8.716;2024-02-28T00:48:14;16.80;;;10.83;;
22543;SDS011;11438;52.044;8.716;2024-02-28T00:50:40;19.70;;;11.43;;
22543;SDS011;11438;52.044;8.716;2024-02-28T00:53:05;15.87;;;9.97;;
22543;SDS011;11438;52.044;8.716;2024-02-28T00:55:31;16.93;;;10.87;;
22543;SDS011;11438;52.044;8.716;2024-02-28T00:57:57;17.37;;;11.67;;
22543;SDS011;11438;52.044;8.716;2024-02-28T01:00:22;18.67;;;11.13;;
22543;SDS011;11438;52.044;8.716;2024-02-28T01:02:48;17.07;;;10.90;;
22543;SDS011;11438;52.044;8.716;2024-02-28T01:05:13;17.23;;;11.30;;
22543;SDS011;11438;52.044;8.716;2024-02-28T01:07:39;17.33;;;10.50;;
22543;SDS011;11438;52.044;8.716;2024-02-28T01:10:04;16.23;;;10.60;;
22543;SDS011;11438;52.044;8.716;2024-02-28T01:12:31;19.57;;;11.07;;
22543;SDS011;11438;52.044;8.716;2024-02-28T01:14:56;18.47;;;10.93;;
22543;SDS011;11438;52.044;8.716;2024-02-28T01:17:22;17.93;;;10.80;;
22543;SDS011;11438;52.044;8.716;2024-02-28T01:19:47;15.80;;;10.87;;
22543;SDS011;11438;52.044;8.716;2024-02-28T01:22:13;17.83;;;10.67;;
22543;SDS011;11438;52.044;8.716;2024-02-28T01:24:39;16.60;;;10.87;;
22543;SDS011;11438;52.044;8.716;2024-02-28T01:27:04;17.40;;;10.97;;
22543;SDS011;11438;52.044;8.716;2024-02-28T01:29:30;18.80;;;11.13;;
22543;SDS011;11438;52.044;8.716;2024-02-28T01:31:56;16.77;;;10.37;;
22543;SDS011;11438;52.044;8.716;2024-02-28T01:34:21;17.97;;;11.20;;
22543;SDS011;11438;52.044;8.716;2024-02-28T01:36:47;19.50;;;11.50;;
22543;SDS011;11438;52.044;8.716;2024-02-28T01:39:12;16.37;;;10.67;;
22543;SDS011;11438;52.044;8.716;2024-02-28T01:41:38;19.33;;;11.40;;
22543;SDS011;11438;52.044;8.716;2024-02-28T01:44:03;17.50;;;11.13;;
22543;SDS011;11438;52.044;8.716;2024-02-28T01:46:29;15.83;;;10.17;;
22543;SDS011;11438;52.044;8.716;2024-02-28T01:48:56;16.53;;;10.50;;
22543;SDS011;11438;52.044;8.716;2024-02-28T01:51:25;16.80;;;10.70;;
22543;SDS011;11438;52.044;8.716;2024-02-28T01:53:54;15.47;;;10.17;;
22543;SDS011;11438;52.044;8.716;2024-02-28T01:56:20;16.27;;;10.50;;
22543;SDS011;11438;52.044;8.716;2024-02-28T01:58:47;15.40;;;10.03;;
22543;SDS011;11438;52.044;8.716;2024-02-28T02:01:14;18.27;;;10.60;;
22543;SDS011;11438;52.044;8.716;2024-02-28T02:03:40;17.50;;;10.93;;
22543;SDS011;11438;52.044;8.716;2024-02-28T02:06:07;16.80;;;10.90;;
22543;SDS011;11438;52.044;8.716;2024-02-28T02:08:33;19.87;;;11.87;;
22543;SDS011;11438;52.044;8.716;2024-02-28T02:10:59;19.03;;;11.13;;
22543;SDS011;11438;52.044;8.716;2024-02-28T02:13:25;18.20;;;11.23;;
22543;SDS011;11438;52.044;8.716;2024-02-28T02:15:50;17.10;;;11.20;;
22543;SDS011;11438;52.044;8.716;2024-02-28T02:18:16;18.83;;;10.73;;
22543;SDS011;11438;52.044;8.716;2024-02-28T02:20:43;19.87;;;11.10;;
22543;SDS011;11438;52.044;8.716;2024-02-28T02:23:11;17.90;;;10.87;;
22543;SDS011;11438;52.044;8.716;2024-02-28T02:25:47;18.33;;;10.67;;
22543;SDS011;11438;52.044;8.716;2024-02-28T02:28:13;20.70;;;10.93;;
22543;SDS011;11438;52.044;8.716;2024-02-28T02:30:39;19.30;;;11.73;;
22543;SDS011;11438;52.044;8.716;2024-02-28T02:33:06;20.13;;;11.13;;
22543;SDS011;11438;52.044;8.716;2024-02-28T02:35:33;18.10;;;10.93;;
22543;SDS011;11438;52.044;8.716;2024-02-28T02:37:59;17.57;;;11.23;;
22543;SDS011;11438;52.044;8.716;2024-02-28T02:40:25;18.60;;;11.73;;
22543;SDS011;11438;52.044;8.716;2024-02-28T02:42:50;16.43;;;10.87;;
22543;SDS011;11438;52.044;8.716;2024-02-28T02:45:16;19.27;;;11.67;;
22543;SDS011;11438;52.044;8.716;2024-02-28T02:47:42;18.33;;;11.10;;
22543;SDS011;11438;52.044;8.716;2024-02-28T02:50:08;18.00;;;10.87;;
22543;SDS011;11438;52.044;8.716;2024-02-28T02:52:34;16.77;;;10.73;;
22543;SDS011;11438;52.044;8.716;2024-02-28T02:55:00;19.23;;;11.00;;
22543;SDS011;11438;52.044;8.716;2024-02-28T02:57:26;15.50;;;10.23;;
22543;SDS011;11438;52.044;8.716;2024-02-28T02:59:51;16.63;;;10.60;;
22543;SDS011;11438;52.044;8.716;2024-02-28T03:02:17;20.57;;;11.73;;
22543;SDS011;11438;52.044;8.716;2024-02-28T03:04:42;19.70;;;11.97;;
22543;SDS011;11438;52.044;8.716;2024-02-28T03:07:08;17.80;;;11.50;;
22543;SDS011;11438;52.044;8.716;2024-02-28T03:09:33;21.20;;;11.67;;
22543;SDS011;11438;52.044;8.716;2024-02-28T03:11:59;21.50;;;12.33;;
22543;SDS011;11438;52.044;8.716;2024-02-28T03:14:25;20.83;;;12.80;;
22543;SDS011;11438;52.044;8.716;2024-02-28T03:16:52;19.07;;;12.13;;
22543;SDS011;11438;52.044;8.716;2024-02-28T03:19:18;19.67;;;11.13;;
22543;SDS011;11438;52.044;8.716;2024-02-28T03:21:43;20.87;;;12.20;;
22543;SDS011;11438;52.044;8.716;2024-02-28T03:24:09;18.63;;;11.63;;
22543;SDS011;11438;52.044;8.716;2024-02-28T03:26:34;19.00;;;11.87;;
22543;SDS011;11438;52.044;8.716;2024-02-28T03:29:00;20.30;;;11.17;;
22543;SDS011;11438;52.044;8.716;2024-02-28T03:31:25;21.90;;;13.47;;
22543;SDS011;11438;52.044;8.716;2024-02-28T03:33:51;21.57;;;12.90;;
22543;SDS011;11438;52.044;8.716;2024-02-28T03:36:16;19.60;;;12.50;;
22543;SDS011;11438;52.044;8.716;2024-02-28T03:38:42;19.60;;;12.43;;
22543;SDS011;11438;52.044;8.716;2024-02-28T03:41:08;24.20;;;13.93;;
22543;SDS011;11438;52.044;8.716;2024-02-28T03:43:34;25.00;;;14.37;;
22543;SDS011;11438;52.044;8.716;2024-02-28T03:45:59;25.80;;;14.60;;
22543;SDS011;11438;52.044;8.716;2024-02-28T03:48:25;26.87;;;14.30;;
22543;SDS011;11438;52.044;8.716;2024-02-28T03:50:51;21.47;;;13.00;;
22543;SDS011;11438;52.044;8.716;2024-02-28T03:53:16;21.63;;;12.77;;
22543;SDS011;11438;52.044;8.716;2024-02-28T03:55:42;20.43;;;13.00;;
22543;SDS011;11438;52.044;8.716;2024-02-28T03:58:09;21.40;;;12.60;;
22543;SDS011;11438;52.044;8.716;2024-02-28T04:00:35;23.20;;;13.33;;
22543;SDS011;11438;52.044;8.716;2024-02-28T04:03:01;20.00;;;12.70;;
22543;SDS011;11438;52.044;8.716;2024-02-28T04:05:27;19.97;;;12.47;;
22543;SDS011;11438;52.044;8.716;2024-02-28T04:07:53;21.77;;;13.00;;
22543;SDS011;11438;52.044;8.716;2024-02-28T04:10:19;20.30;;;12.80;;
22543;SDS011;11438;52.044;8.716;2024-02-28T04:12:44;20.67;;;12.90;;
22543;SDS011;11438;52.044;8.716;2024-02-28T04:15:10;21.87;;;13.10;;
22543;SDS011;11438;52.044;8.716;2024-02-28T04:17:37;20.73;;;12.97;;
22543;SDS011;11438;52.044;8.716;2024-02-28T04:20:03;17.67;;;11.30;;
22543;SDS011;11438;52.044;8.716;2024-02-28T04:22:33;20.03;;;12.57;;
22543;SDS011;11438;52.044;8.716;2024-02-28T04:24:58;20.43;;;12.80;;
22543;SDS011;11438;52.044;8.716;2024-02-28T04:27:23;19.23;;;12.33;;
22543;SDS011;11438;52.044;8.716;2024-02-28T04:29:49;20.67;;;12.57;;
22543;SDS011;11438;52.044;8.716;2024-02-28T04:32:14;18.57;;;12.17;;
22543;SDS011;11438;52.044;8.716;2024-02-28T04:34:40;22.40;;;14.13;;
22543;SDS011;11438;52.044;8.716;2024-02-28T04:37:05;19.53;;;13.03;;
22543;SDS011;11438;52.044;8.716;2024-02-28T04:39:31;24.00;;;12.77;;
22543;SDS011;11438;52.044;8.716;2024-02-28T04:41:56;21.93;;;13.70;;
22543;SDS011;11438;52.044;8.716;2024-02-28T04:44:22;23.23;;;14.33;;
22543;SDS011;11438;52.044;8.716;2024-02-28T04:46:47;23.73;;;14.47;;
22543;SDS011;11438;52.044;8.716;2024-02-28T04:49:13;23.07;;;14.43;;
22543;SDS011;11438;52.044;8.716;2024-02-28T04:51:38;22.40;;;14.00;;
22543;SDS011;11438;52.044;8.716;2024-02-28T04:54:03;27.27;;;15.77;;
22543;SDS011;11438;52.044;8.716;2024-02-28T04:56:29;23.63;;;14.90;;
22543;SDS011;11438;52.044;8.716;2024-02-28T04:58:55;22.67;;;14.07;;
22543;SDS011;11438;52.044;8.716;2024-02-28T05:01:20;26.17;;;15.33;;
22543;SDS011;11438;52.044;8.716;2024-02-28T05:03:45;24.97;;;15.37;;
22543;SDS011;11438;52.044;8.716;2024-02-28T05:06:11;24.07;;;14.80;;
22543;SDS011;11438;52.044;8.716;2024-02-28T05:08:39;25.73;;;15.53;;
22543;SDS011;11438;52.044;8.716;2024-02-28T05:11:05;26.00;;;15.47;;
22543;SDS011;11438;52.044;8.716;2024-02-28T05:13:30;27.73;;;15.50;;
22543;SDS011;11438;52.044;8.716;2024-02-28T05:15:56;34.67;;;16.03;;
22543;SDS011;11438;52.044;8.716;2024-02-28T05:18:21;24.27;;;14.87;;
22543;SDS011;11438;52.044;8.716;2024-02-28T05:20:47;26.03;;;16.20;;
22543;SDS011;11438;52.044;8.716;2024-02-28T05:23:13;30.43;;;15.73;;
22543;SDS011;11438;52.044;8.716;2024-02-28T05:25:38;29.00;;;15.83;;
22543;SDS011;11438;52.044;8.716;2024-02-28T05:28:04;25.00;;;15.17;;
22543;SDS011;11438;52.044;8.716;2024-02-28T05:30:30;24.97;;;15.03;;
22543;SDS011;11438;52.044;8.716;2024-02-28T05:32:55;26.60;;;15.77;;
22543;SDS011;11438;52.044;8.716;2024-02-28T05:35:21;32.87;;;15.10;;
22543;SDS011;11438;52.044;8.716;2024-02-28T05:37:46;27.30;;;16.20;;
22543;SDS011;11438;52.044;8.716;2024-02-28T05:40:12;32.10;;;16.33;;
22543;SDS011;11438;52.044;8.716;2024-02-28T05:42:37;29.07;;;16.43;;
22543;SDS011;11438;52.044;8.716;2024-02-28T05:45:04;26.63;;;16.23;;
22543;SDS011;11438;52.044;8.716;2024-02-28T05:47:30;29.17;;;16.57;;
22543;SDS011;11438;52.044;8.716;2024-02-28T05:49:56;27.23;;;16.27;;
22543;SDS011;11438;52.044;8.716;2024-02-28T05:52:23;33.37;;;17.80;;
22543;SDS011;11438;52.044;8.716;2024-02-28T05:54:50;28.33;;;17.40;;
22543;SDS011;11438;52.044;8.716;2024-02-28T05:57:16;29.43;;;16.87;;
22543;SDS011;11438;52.044;8.716;2024-02-28T05:59:41;29.13;;;16.83;;
22543;SDS011;11438;52.044;8.716;2024-02-28T06:02:07;29.53;;;16.37;;
22543;SDS011;11438;52.044;8.716;2024-02-28T06:04:33;28.83;;;17.17;;
22543;SDS011;11438;52.044;8.716;2024-02-28T06:06:58;37.67;;;17.80;;
22543;SDS011;11438;52.044;8.716;2024-02-28T06:09:24;28.40;;;16.23;;
22543;SDS011;11438;52.044;8.716;2024-02-28T06:11:52;27.30;;;17.03;;
22543;SDS011;11438;52.044;8.716;2024-02-28T06:14:18;25.37;;;15.73;;
22543;SDS011;11438;52.044;8.716;2024-02-28T06:16:46;27.93;;;16.03;;
22543;SDS011;11438;52.044;8.716;2024-02-28T06:19:12;28.13;;;16.47;;
22543;SDS011;11438;52.044;8.716;2024-02-28T06:21:37;27.83;;;16.63;;
22543;SDS011;11438;52.044;8.716;2024-02-28T06:24:03;29.63;;;17.23;;
22543;SDS011;11438;52.044;8.716;2024-02-28T06:26:29;31.17;;;18.40;;
22543;SDS011;11438;52.044;8.716;2024-02-28T06:28:56;27.40;;;16.27;;
22543;SDS011;11438;52.044;8.716;2024-02-28T06:31:26;28.73;;;16.20;;
22543;SDS011;11438;52.044;8.716;2024-02-28T06:33:52;32.30;;;18.47;;
22543;SDS011;11438;52.044;8.716;2024-02-28T06:36:17;33.63;;;18.47;;
22543;SDS011;11438;52.044;8.716;2024-02-28T06:38:42;29.10;;;17.53;;
22543;SDS011;11438;52.044;8.716;2024-02-28T06:41:08;29.77;;;17.27;;
22543;SDS011;11438;52.044;8.716;2024-02-28T06:43:34;30.50;;;17.63;;
22543;SDS011;11438;52.044;8.716;2024-02-28T06:46:00;32.93;;;18.33;;
22543;SDS011;11438;52.044;8.716;2024-02-28T06:48:26;31.13;;;17.00;;
22543;SDS011;11438;52.044;8.716;2024-02-28T06:50:52;29.70;;;17.27;;
22543;SDS011;11438;52.044;8.716;2024-02-28T06:53:18;29.57;;;17.03;;
22543;SDS011;11438;52.044;8.716;2024-02-28T06:55:43;32.40;;;18.63;;
22543;SDS011;11438;52.044;8.716;2024-02-28T06:58:10;32.33;;;18.43;;
22543;SDS011;11438;52.044;8.716;2024-02-28T07:00:36;31.57;;;17.97;;
22543;SDS011;11438;52.044;8.716;2024-02-28T07:03:01;31.13;;;16.63;;
22543;SDS011;11438;52.044;8.716;2024-02-28T07:05:27;30.80;;;16.47;;
22543;SDS011;11438;52.044;8.716;2024-02-28T07:07:52;32.53;;;18.77;;
22543;SDS011;11438;52.044;8.716;2024-02-28T07:10:18;29.53;;;16.83;;
22543;SDS011;11438;52.044;8.716;2024-02-28T07:12:44;30.00;;;17.23;;
22543;SDS011;11438;52.044;8.716;2024-02-28T07:15:09;26.37;;;16.23;;
22543;SDS011;11438;52.044;8.716;2024-02-28T07:17:35;27.13;;;16.77;;
22543;SDS011;11438;52.044;8.716;2024-02-28T07:20:00;27.63;;;16.60;;
22543;SDS011;11438;52.044;8.716;2024-02-28T07:22:26;27.50;;;16.83;;
22543;SDS011;11438;52.044;8.716;2024-02-28T07:24:51;24.00;;;15.50;;
22543;SDS011;11438;52.044;8.716;2024-02-28T07:27:17;25.90;;;15.77;;
22543;SDS011;11438;52.044;8.716;2024-02-28T07:29:42;28.23;;;16.23;;
22543;SDS011;11438;52.044;8.716;2024-02-28T07:32:08;24.77;;;14.60;;
22543;SDS011;11438;52.044;8.716;2024-02-28T07:34:34;24.03;;;15.63;;
22543;SDS011;11438;52.044;8.716;2024-02-28T07:36:59;23.27;;;14.70;;
22543;SDS011;11438;52.044;8.716;2024-02-28T07:39:25;26.50;;;16.07;;
22543;SDS011;11438;52.044;8.716;2024-02-28T07:41:52;28.43;;;16.37;;
22543;SDS011;11438;52.044;8.716;2024-02-28T07:44:17;22.10;;;13.50;;
22543;SDS011;11438;52.044;8.716;2024-02-28T07:46:43;25.17;;;15.00;;
22543;SDS011;11438;52.044;8.716;2024-02-28T07:49:09;24.47;;;14.63;;
22543;SDS011;11438;52.044;8.716;2024-02-28T07:51:36;29.77;;;15.87;;
22543;SDS011;11438;52.044;8.716;2024-02-28T07:54:01;29.07;;;16.57;;
22543;SDS011;11438;52.044;8.716;2024-02-28T07:56:27;29.60;;;17.43;;
22543;SDS011;11438;52.044;8.716;2024-02-28T07:58:54;26.63;;;16.23;;
22543;SDS011;11438;52.044;8.716;2024-02-28T08:01:19;27.07;;;16.07;;
22543;SDS011;11438;52.044;8.716;2024-02-28T08:03:46;28.63;;;16.50;;
22543;SDS011;11438;52.044;8.716;2024-02-28T08:06:11;29.17;;;16.70;;
22543;SDS011;11438;52.044;8.716;2024-02-28T08:08:37;32.73;;;18.17;;
22543;SDS011;11438;52.044;8.716;2024-02-28T08:11:02;29.10;;;17.70;;
22543;SDS011;11438;52.044;8.716;2024-02-28T08:13:28;31.37;;;17.27;;
22543;SDS011;11438;52.044;8.716;2024-02-28T08:15:54;32.77;;;17.00;;
22543;SDS011;11438;52.044;8.716;2024-02-28T08:18:20;37.63;;;18.87;;
22543;SDS011;11438;52.044;8.716;2024-02-28T08:20:46;40.47;;;19.67;;
22543;SDS011;11438;52.044;8.716;2024-02-28T08:23:11;39.10;;;20.93;;
22543;SDS011;11438;52.044;8.716;2024-02-28T08:25:37;39.23;;;19.67;;
22543;SDS011;11438;52.044;8.716;2024-02-28T08:28:03;33.43;;;17.93;;
22543;SDS011;11438;52.044;8.716;2024-02-28T08:30:28;39.73;;;18.37;;
22543;SDS011;11438;52.044;8.716;2024-02-28T08:32:54;42.07;;;19.47;;
22543;SDS011;11438;52.044;8.716;2024-02-28T08:35:20;40.20;;;18.07;;
22543;SDS011;11438;52.044;8.716;2024-02-28T08:37:45;40.47;;;18.63;;
22543;SDS011;11438;52.044;8.716;2024-02-28T08:40:11;38.93;;;17.97;;
22543;SDS011;11438;52.044;8.716;2024-02-28T08:42:37;40.63;;;19.43;;
22543;SDS011;11438;52.044;8.716;2024-02-28T08:45:03;40.53;;;18.80;;
22543;SDS011;11438;52.044;8.716;2024-02-28T08:47:30;45.90;;;20.13;;
22543;SDS011;11438;52.044;8.716;2024-02-28T08:49:56;39.27;;;18.47;;
22543;SDS011;11438;52.044;8.716;2024-02-28T08:52:22;41.60;;;18.37;;
22543;SDS011;11438;52.044;8.716;2024-02-28T08:54:47;46.70;;;19.37;;
22543;SDS011;11438;52.044;8.716;2024-02-28T08:57:13;41.33;;;19.20;;
22543;SDS011;11438;52.044;8.716;2024-02-28T08:59:39;38.70;;;18.43;;
22543;SDS011;11438;52.044;8.716;2024-02-28T09:02:05;40.43;;;18.83;;
22543;SDS011;11438;52.044;8.716;2024-02-28T09:04:31;42.57;;;18.97;;
22543;SDS011;11438;52.044;8.716;2024-02-28T09:06:57;44.33;;;19.83;;
22543;SDS011;11438;52.044;8.716;2024-02-28T09:09:22;39.63;;;19.07;;
22543;SDS011;11438;52.044;8.716;2024-02-28T09:11:48;39.30;;;17.63;;
22543;SDS011;11438;52.044;8.716;2024-02-28T09:14:13;41.70;;;20.13;;
22543;SDS011;11438;52.044;8.716;2024-02-28T09:16:39;44.77;;;19.77;;
22543;SDS011;11438;52.044;8.716;2024-02-28T09:19:04;39.00;;;18.60;;
22543;SDS011;11438;52.044;8.716;2024-02-28T09:21:30;36.60;;;17.97;;
22543;SDS011;11438;52.044;8.716;2024-02-28T09:23:55;37.13;;;17.37;;
22543;SDS011;11438;52.044;8.716;2024-02-28T09:26:21;39.17;;;18.87;;
22543;SDS011;11438;52.044;8.716;2024-02-28T09:28:47;40.37;;;19.70;;
22543;SDS011;11438;52.044;8.716;2024-02-28T09:31:12;42.77;;;18.80;;
22543;SDS011;11438;52.044;8.716;2024-02-28T09:33:40;43.27;;;20.33;;
22543;SDS011;11438;52.044;8.716;2024-02-28T09:36:06;47.37;;;20.47;;
22543;SDS011;11438;52.044;8.716;2024-02-28T09:38:31;47.83;;;21.63;;
22543;SDS011;11438;52.044;8.716;2024-02-28T09:40:57;41.73;;;19.70;;
22543;SDS011;11438;52.044;8.716;2024-02-28T09:43:30;44.93;;;20.20;;
22543;SDS011;11438;52.044;8.716;2024-02-28T09:45:59;43.23;;;20.57;;
22543;SDS011;11438;52.044;8.716;2024-02-28T09:48:28;43.37;;;20.90;;
22543;SDS011;11438;52.044;8.716;2024-02-28T09:50:55;44.03;;;20.03;;
22543;SDS011;11438;52.044;8.716;2024-02-28T09:53:24;42.13;;;19.60;;
22543;SDS011;11438;52.044;8.716;2024-02-28T09:55:50;44.58;;;19.75;;
22543;SDS011;11438;52.044;8.716;2024-02-28T09:58:16;42.50;;;19.65;;
22543;SDS011;11438;52.044;8.716;2024-02-28T10:00:42;42.03;;;20.40;;
22543;SDS011;11438;52.044;8.716;2024-02-28T10:03:10;41.03;;;19.33;;
22543;SDS011;11438;52.044;8.716;2024-02-28T10:05:41;43.30;;;20.87;;
22543;SDS011;11438;52.044;8.716;2024-02-28T10:08:07;40.70;;;18.50;;
22543;SDS011;11438;52.044;8.716;2024-02-28T10:10:36;39.23;;;19.27;;
22543;SDS011;11438;52.044;8.716;2024-02-28T10:13:02;42.27;;;19.40;;
22543;SDS011;11438;52.044;8.716;2024-02-28T10:15:28;39.57;;;19.30;;
22543;SDS011;11438;52.044;8.716;2024-02-28T10:17:53;41.13;;;19.77;;
22543;SDS011;11438;52.044;8.716;2024-02-28T10:20:19;39.17;;;18.83;;
22543;SDS011;11438;52.044;8.716;2024-02-28T10:22:44;37.43;;;18.20;;
22543;SDS011;11438;52.044;8.716;2024-02-28T10:25:10;37.60;;;18.47;;
22543;SDS011;11438;52.044;8.716;2024-02-28T10:27:35;40.53;;;19.07;;
22543;SDS011;11438;52.044;8.716;2024-02-28T10:30:02;36.80;;;18.50;;
22543;SDS011;11438;52.044;8.716;2024-02-28T10:32:31;36.13;;;17.47;;
22543;SDS011;11438;52.044;8.716;2024-02-28T10:34:58;35.90;;;17.00;;
22543;SDS011;11438;52.044;8.716;2024-02-28T10:37:25;38.07;;;18.43;;
22543;SDS011;11438;52.044;8.716;2024-02-28T10:39:53;37.87;;;18.67;;
22543;SDS011;11438;52.044;8.716;2024-02-28T10:42:21;43.35;;;20.55;;
22543;SDS011;11438;52.044;8.716;2024-02-28T10:44:48;39.67;;;19.27;;
22543;SDS011;11438;52.044;8.716;2024-02-28T10:47:18;37.87;;;18.53;;
22543;SDS011;11438;52.044;8.716;2024-02-28T10:49:44;44.17;;;20.60;;
22543;SDS011;11438;52.044;8.716;2024-02-28T10:52:10;45.43;;;20.43;;
22543;SDS011;11438;52.044;8.716;2024-02-28T10:54:38;45.10;;;22.90;;
22543;SDS011;11438;52.044;8.716;2024-02-28T10:57:07;38.70;;;19.73;;
22543;SDS011;11438;52.044;8.716;2024-02-28T10:59:36;38.77;;;19.10;;
22543;SDS011;11438;52.044;8.716;2024-02-28T11:02:02;40.90;;;19.97;;
22543;SDS011;11438;52.044;8.716;2024-02-28T11:04:29;47.33;;;22.67;;
22543;SDS011;11438;52.044;8.716;2024-02-28T11:06:55;45.70;;;21.55;;
22543;SDS011;11438;52.044;8.716;2024-02-28T11:09:21;49.27;;;23.07;;
22543;SDS011;11438;52.044;8.716;2024-02-28T11:11:51;49.83;;;22.47;;
22543;SDS011;11438;52.044;8.716;2024-02-28T11:14:18;47.23;;;21.93;;
22543;SDS011;11438;52.044;8.716;2024-02-28T11:16:47;41.55;;;20.38;;
22543;SDS011;11438;52.044;8.716;2024-02-28T11:19:20;46.73;;;21.93;;
22543;SDS011;11438;52.044;8.716;2024-02-28T11:21:53;47.63;;;22.20;;
22543;SDS011;11438;52.044;8.716;2024-02-28T11:24:22;49.70;;;23.10;;
22543;SDS011;11438;52.044;8.716;2024-02-28T11:26:49;48.27;;;22.93;;
22543;SDS011;11438;52.044;8.716;2024-02-28T11:29:16;46.88;;;22.08;;
22543;SDS011;11438;52.044;8.716;2024-02-28T11:31:41;45.97;;;21.30;;
22543;SDS011;11438;52.044;8.716;2024-02-28T11:34:07;50.80;;;22.27;;
22543;SDS011;11438;52.044;8.716;2024-02-28T11:36:33;46.78;;;20.50;;
22543;SDS011;11438;52.044;8.716;2024-02-28T11:38:59;45.83;;;21.65;;
22543;SDS011;11438;52.044;8.716;2024-02-28T11:41:26;46.10;;;21.40;;
22543;SDS011;11438;52.044;8.716;2024-02-28T11:43:54;45.53;;;22.10;;
22543;SDS011;11438;52.044;8.716;2024-02-28T11:46:20;45.27;;;22.10;;
22543;SDS011;11438;52.044;8.716;2024-02-28T11:48:45;46.10;;;21.03;;
22543;SDS011;11438;52.044;8.716;2024-02-28T11:51:11;49.27;;;21.60;;
22543;SDS011;11438;52.044;8.716;2024-02-28T11:53:36;44.78;;;21.42;;
22543;SDS011;11438;52.044;8.716;2024-02-28T11:56:02;45.55;;;20.10;;
22543;SDS011;11438;52.044;8.716;2024-02-28T11:58:28;46.57;;;20.27;;
22543;SDS011;11438;52.044;8.716;2024-02-28T12:00:54;45.15;;;20.35;;
22543;SDS011;11438;52.044;8.716;2024-02-28T12:03:20;44.33;;;20.67;;
22543;SDS011;11438;52.044;8.716;2024-02-28T12:05:49;44.67;;;20.48;;
22543;SDS011;11438;52.044;8.716;2024-02-28T12:08:16;40.20;;;19.05;;
22543;SDS011;11438;52.044;8.716;2024-02-28T12:10:44;42.92;;;21.38;;
22543;SDS011;11438;52.044;8.716;2024-02-28T12:13:10;46.87;;;20.20;;
22543;SDS011;11438;52.044;8.716;2024-02-28T12:15:36;47.47;;;20.40;;
22543;SDS011;11438;52.044;8.716;2024-02-28T12:18:07;42.80;;;20.90;;
22543;SDS011;11438;52.044;8.716;2024-02-28T12:20:34;49.73;;;21.60;;
22543;SDS011;11438;52.044;8.716;2024-02-28T12:23:00;46.88;;;22.17;;
22543;SDS011;11438;52.044;8.716;2024-02-28T12:25:25;47.40;;;22.77;;
22543;SDS011;11438;52.044;8.716;2024-02-28T12:27:50;49.20;;;21.58;;
22543;SDS011;11438;52.044;8.716;2024-02-28T12:30:16;48.45;;;22.70;;
22543;SDS011;11438;52.044;8.716;2024-02-28T12:32:41;47.25;;;21.88;;
22543;SDS011;11438;52.044;8.716;2024-02-28T12:35:07;48.92;;;22.58;;
22543;SDS011;11438;52.044;8.716;2024-02-28T12:37:32;48.00;;;21.88;;
22543;SDS011;11438;52.044;8.716;2024-02-28T12:39:58;50.05;;;22.92;;
22543;SDS011;11438;52.044;8.716;2024-02-28T12:42:23;48.80;;;22.73;;
22543;SDS011;11438;52.044;8.716;2024-02-28T12:44:49;48.28;;;21.77;;
22543;SDS011;11438;52.044;8.716;2024-02-28T12:47:14;47.08;;;21.17;;
22543;SDS011;11438;52.044;8.716;2024-02-28T12:49:40;44.53;;;22.00;;
22543;SDS011;11438;52.044;8.716;2024-02-28T12:52:05;50.47;;;23.37;;
22543;SDS011;11438;52.044;8.716;2024-02-28T12:54:32;54.08;;;25.27;;
22543;SDS011;11438;52.044;8.716;2024-02-28T12:56:57;48.97;;;22.63;;
22543;SDS011;11438;52.044;8.716;2024-02-28T12:59:24;50.10;;;23.45;;
22543;SDS011;11438;52.044;8.716;2024-02-28T13:01:50;52.67;;;22.17;;
22543;SDS011;11438;52.044;8.716;2024-02-28T13:04:16;45.35;;;21.35;;
22543;SDS011;11438;52.044;8.716;2024-02-28T13:06:41;47.05;;;22.15;;
22543;SDS011;11438;52.044;8.716;2024-02-28T13:09:07;46.65;;;21.58;;
22543;SDS011;11438;52.044;8.716;2024-02-28T13:11:37;48.60;;;22.52;;
22543;SDS011;11438;52.044;8.716;2024-02-28T13:14:02;50.40;;;23.40;;
22543;SDS011;11438;52.044;8.716;2024-02-28T13:16:28;47.95;;;22.08;;
22543;SDS011;11438;52.044;8.716;2024-02-28T13:18:53;47.80;;;21.88;;
22543;SDS011;11438;52.044;8.716;2024-02-28T13:21:19;48.58;;;22.25;;
22543;SDS011;11438;52.044;8.716;2024-02-28T13:23:45;47.85;;;22.58;;
22543;SDS011;11438;52.044;8.716;2024-02-28T13:26:10;45.17;;;21.13;;
22543;SDS011;11438;52.044;8.716;2024-02-28T13:28:42;50.88;;;22.00;;
22543;SDS011;11438;52.044;8.716;2024-02-28T13:31:08;43.60;;;20.90;;
22543;SDS011;11438;52.044;8.716;2024-02-28T13:33:34;45.75;;;21.20;;
22543;SDS011;11438;52.044;8.716;2024-02-28T13:36:02;50.97;;;22.98;;
22543;SDS011;11438;52.044;8.716;2024-02-28T13:38:27;49.00;;;21.80;;
22543;SDS011;11438;52.044;8.716;2024-02-28T13:40:54;49.15;;;22.23;;
22543;SDS011;11438;52.044;8.716;2024-02-28T13:43:19;46.35;;;21.23;;
22543;SDS011;11438;52.044;8.716;2024-02-28T13:45:48;42.55;;;20.45;;
22543;SDS011;11438;52.044;8.716;2024-02-28T13:48:19;43.45;;;20.35;;
22543;SDS011;11438;52.044;8.716;2024-02-28T13:50:47;48.13;;;22.30;;
22543;SDS011;11438;52.044;8.716;2024-02-28T13:53:13;47.67;;;22.98;;
22543;SDS011;11438;52.044;8.716;2024-02-28T13:55:40;42.28;;;20.42;;
22543;SDS011;11438;52.044;8.716;2024-02-28T13:58:07;43.33;;;20.85;;
22543;SDS011;11438;52.044;8.716;2024-02-28T14:00:34;43.63;;;20.45;;
22543;SDS011;11438;52.044;8.716;2024-02-28T14:03:00;42.83;;;21.33;;
22543;SDS011;11438;52.044;8.716;2024-02-28T14:05:26;42.63;;;20.63;;
22543;SDS011;11438;52.044;8.716;2024-02-28T14:07:52;43.97;;;21.23;;
22543;SDS011;11438;52.044;8.716;2024-02-28T14:10:18;44.75;;;22.10;;
22543;SDS011;11438;52.044;8.716;2024-02-28T14:12:43;43.22;;;21.10;;
22543;SDS011;11438;52.044;8.716;2024-02-28T14:15:09;48.00;;;22.65;;